createdAt,value
2017-05-15T00:00:08.624Z,1016.80
2017-05-15T00:01:10.048Z,1016.76
2017-05-15T00:02:11.489Z,1016.78
2017-05-15T00:03:12.916Z,1016.78
2017-05-15T00:04:14.347Z,1016.79
2017-05-15T00:05:15.770Z,1016.80
2017-05-15T00:06:17.211Z,1016.80
2017-05-15T00:07:18.637Z,1016.83
2017-05-15T00:08:20.067Z,1016.82
2017-05-15T00:09:21.501Z,1016.85
2017-05-15T00:10:22.928Z,1016.84
2017-05-15T00:11:24.368Z,1016.89
2017-05-15T00:12:25.791Z,1016.85
2017-05-15T00:13:27.220Z,1016.90
2017-05-15T00:14:29.504Z,1016.88
2017-05-15T00:15:30.935Z,1016.88
2017-05-15T00:16:32.358Z,1016.85
2017-05-15T00:17:33.784Z,1016.86
2017-05-15T00:18:35.212Z,1016.85
2017-05-15T00:19:36.644Z,1016.83
2017-05-15T00:20:38.071Z,1016.83
2017-05-15T00:21:39.501Z,1016.80
2017-05-15T00:22:40.939Z,1016.86
2017-05-15T00:23:42.370Z,1016.83
2017-05-15T00:24:43.795Z,1016.85
2017-05-15T00:25:45.226Z,1016.84
2017-05-15T00:26:46.662Z,1016.86
2017-05-15T00:27:48.090Z,1016.87
2017-05-15T00:28:49.519Z,1016.88
2017-05-15T00:29:50.951Z,1016.88
2017-05-15T00:30:52.403Z,1016.86
2017-05-15T00:31:53.843Z,1016.88
2017-05-15T00:32:55.274Z,1016.85
2017-05-15T00:33:56.699Z,1016.84
2017-05-15T00:34:58.128Z,1016.89
2017-05-15T00:35:59.557Z,1016.87
2017-05-15T00:37:00.982Z,1016.88
2017-05-15T00:38:02.404Z,1016.88
2017-05-15T00:39:03.834Z,1016.84
2017-05-15T00:40:05.266Z,1016.87
2017-05-15T00:41:06.693Z,1016.84
2017-05-15T00:42:08.120Z,1016.83
2017-05-15T00:43:09.549Z,1016.85
2017-05-15T00:44:10.978Z,1016.86
2017-05-15T00:45:13.172Z,1016.86
2017-05-15T00:46:14.605Z,1016.86
2017-05-15T00:47:16.078Z,1016.85
2017-05-15T00:48:17.456Z,1016.83
2017-05-15T00:49:18.885Z,1016.84
2017-05-15T00:50:20.316Z,1016.86
2017-05-15T00:51:21.741Z,1016.88
2017-05-15T00:52:23.180Z,1016.86
2017-05-15T00:53:24.698Z,1016.87
2017-05-15T00:54:26.131Z,1016.87
2017-05-15T00:55:27.559Z,1016.87
2017-05-15T00:56:28.994Z,1016.87
2017-05-15T00:57:30.420Z,1016.89
2017-05-15T00:58:31.851Z,1016.87
2017-05-15T00:59:33.287Z,1016.91
2017-05-15T01:00:34.720Z,1016.93
2017-05-15T01:01:36.155Z,1016.91
2017-05-15T01:02:37.589Z,1016.92
2017-05-15T01:03:39.142Z,1016.92
2017-05-15T01:04:40.574Z,1016.97
2017-05-15T01:05:42.002Z,1016.97
2017-05-15T01:06:43.434Z,1017.00
2017-05-15T01:07:44.862Z,1016.97
2017-05-15T01:08:46.296Z,1017.01
2017-05-15T01:09:47.728Z,1016.99
2017-05-15T01:10:49.170Z,1017.02
2017-05-15T01:11:50.587Z,1017.08
2017-05-15T01:12:52.008Z,1017.10
2017-05-15T01:13:53.436Z,1017.10
2017-05-15T01:14:54.869Z,1017.10
2017-05-15T01:15:56.295Z,1017.13
2017-05-15T01:16:57.722Z,1017.17
2017-05-15T01:17:59.156Z,1017.18
2017-05-15T01:19:00.584Z,1017.17
2017-05-15T01:20:02.007Z,1017.17
2017-05-15T01:21:03.437Z,1017.19
2017-05-15T01:22:04.863Z,1017.16
2017-05-15T01:23:06.300Z,1017.20
2017-05-15T01:24:07.731Z,1017.19
2017-05-15T01:25:09.161Z,1017.23
2017-05-15T01:26:10.588Z,1017.28
2017-05-15T01:27:12.012Z,1017.25
2017-05-15T01:28:13.437Z,1017.28
2017-05-15T01:29:14.875Z,1017.26
2017-05-15T01:30:16.298Z,1017.30
2017-05-15T01:31:17.718Z,1017.29
2017-05-15T01:32:19.153Z,1017.26
2017-05-15T01:33:20.572Z,1017.29
2017-05-15T01:34:22.011Z,1017.32
2017-05-15T01:35:23.437Z,1017.28
2017-05-15T01:36:24.868Z,1017.36
2017-05-15T01:37:26.302Z,1017.36
2017-05-15T01:38:27.729Z,1017.44
2017-05-15T01:39:29.160Z,1017.44
2017-05-15T01:40:30.597Z,1017.46
2017-05-15T01:41:32.018Z,1017.46
2017-05-15T01:42:33.444Z,1017.44
2017-05-15T01:43:34.875Z,1017.47
2017-05-15T01:44:36.306Z,1017.47
2017-05-15T01:45:37.734Z,1017.45
2017-05-15T01:46:39.157Z,1017.46
2017-05-15T01:47:40.601Z,1017.46
2017-05-15T01:48:42.022Z,1017.47
2017-05-15T01:49:43.453Z,1017.49
2017-05-15T01:50:44.884Z,1017.46
2017-05-15T01:51:46.308Z,1017.46
2017-05-15T01:52:47.740Z,1017.47
2017-05-15T01:53:49.172Z,1017.46
2017-05-15T01:54:50.599Z,1017.47
2017-05-15T01:55:52.031Z,1017.47
2017-05-15T01:56:53.459Z,1017.43
2017-05-15T01:57:54.889Z,1017.48
2017-05-15T01:58:56.315Z,1017.51
2017-05-15T01:59:57.743Z,1017.50
2017-05-15T02:00:59.171Z,1017.53
2017-05-15T02:02:00.598Z,1017.54
2017-05-15T02:03:02.031Z,1017.52
2017-05-15T02:04:03.462Z,1017.54
2017-05-15T02:05:04.892Z,1017.57
2017-05-15T02:06:06.379Z,1017.60
2017-05-15T02:07:07.811Z,1017.60
2017-05-15T02:08:09.243Z,1017.59
2017-05-15T02:09:10.674Z,1017.55
2017-05-15T02:10:12.100Z,1017.60
2017-05-15T02:11:13.536Z,1017.60
2017-05-15T02:12:14.961Z,1017.60
2017-05-15T02:13:16.436Z,1017.58
2017-05-15T02:14:17.829Z,1017.57
2017-05-15T02:15:19.252Z,1017.58
2017-05-15T02:16:20.679Z,1017.58
2017-05-15T02:17:22.110Z,1017.58
2017-05-15T02:18:23.536Z,1017.60
2017-05-15T02:19:24.965Z,1017.61
2017-05-15T02:20:26.401Z,1017.64
2017-05-15T02:21:27.833Z,1017.64
2017-05-15T02:22:29.262Z,1017.66
2017-05-15T02:23:30.697Z,1017.65
2017-05-15T02:24:32.129Z,1017.70
2017-05-15T02:25:33.569Z,1017.65
2017-05-15T02:26:35.004Z,1017.65
2017-05-15T02:27:36.435Z,1017.62
2017-05-15T02:28:37.861Z,1017.63
2017-05-15T02:29:39.294Z,1017.65
2017-05-15T02:30:40.721Z,1017.66
2017-05-15T02:31:42.142Z,1017.69
2017-05-15T02:32:43.574Z,1017.67
2017-05-15T02:33:45.008Z,1017.70
2017-05-15T02:34:46.432Z,1017.67
2017-05-15T02:35:47.861Z,1017.68
2017-05-15T02:36:49.291Z,1017.68
2017-05-15T02:37:50.719Z,1017.70
2017-05-15T02:38:52.151Z,1017.72
2017-05-15T02:39:53.579Z,1017.67
2017-05-15T02:40:55.004Z,1017.71
2017-05-15T02:41:56.428Z,1017.68
2017-05-15T02:42:57.852Z,1017.65
2017-05-15T02:43:59.277Z,1017.67
2017-05-15T02:45:00.709Z,1017.68
2017-05-15T02:46:02.141Z,1017.69
2017-05-15T02:47:03.563Z,1017.65
2017-05-15T02:48:04.992Z,1017.67
2017-05-15T02:49:06.418Z,1017.69
2017-05-15T02:50:07.840Z,1017.74
2017-05-15T02:51:10.171Z,1017.76
2017-05-15T02:52:11.601Z,1017.74
2017-05-15T02:53:13.025Z,1017.81
2017-05-15T02:54:14.449Z,1017.84
2017-05-15T02:55:15.877Z,1017.86
2017-05-15T02:56:17.299Z,1017.82
2017-05-15T02:57:18.725Z,1017.82
2017-05-15T02:58:20.147Z,1017.82
2017-05-15T02:59:21.576Z,1017.83
2017-05-15T03:00:22.997Z,1017.80
2017-05-15T03:01:24.427Z,1017.80
2017-05-15T03:02:25.857Z,1017.80
2017-05-15T03:03:27.282Z,1017.79
2017-05-15T03:04:28.719Z,1017.79
2017-05-15T03:05:30.160Z,1017.78
2017-05-15T03:06:31.591Z,1017.83
2017-05-15T03:07:33.012Z,1017.78
2017-05-15T03:08:35.234Z,1017.82
2017-05-15T03:09:36.660Z,1017.85
2017-05-15T03:10:38.084Z,1017.86
2017-05-15T03:11:39.507Z,1017.86
2017-05-15T03:12:40.933Z,1017.83
2017-05-15T03:13:42.365Z,1017.84
2017-05-15T03:14:43.798Z,1017.79
2017-05-15T03:15:45.221Z,1017.86
2017-05-15T03:16:46.655Z,1017.85
2017-05-15T03:17:48.080Z,1017.87
2017-05-15T03:18:49.513Z,1017.87
2017-05-15T03:19:50.937Z,1017.92
2017-05-15T03:20:52.370Z,1017.90
2017-05-15T03:21:53.793Z,1017.90
2017-05-15T03:22:55.225Z,1017.88
2017-05-15T03:23:56.653Z,1017.92
2017-05-15T03:24:58.081Z,1017.89
2017-05-15T03:25:59.505Z,1017.93
2017-05-15T03:27:00.931Z,1017.96
2017-05-15T03:28:02.367Z,1017.92
2017-05-15T03:29:03.794Z,1017.91
2017-05-15T03:30:05.238Z,1017.93
2017-05-15T03:31:06.673Z,1017.98
2017-05-15T03:32:08.147Z,1017.98
2017-05-15T03:33:09.534Z,1017.99
2017-05-15T03:34:10.960Z,1017.96
2017-05-15T03:35:12.377Z,1018.02
2017-05-15T03:36:13.807Z,1018.01
2017-05-15T03:37:15.230Z,1018.03
2017-05-15T03:38:16.659Z,1018.03
2017-05-15T03:39:18.086Z,1018.07
2017-05-15T03:40:19.517Z,1018.10
2017-05-15T03:41:20.951Z,1018.13
2017-05-15T03:42:22.380Z,1018.11
2017-05-15T03:43:23.816Z,1018.10
2017-05-15T03:44:25.238Z,1018.09
2017-05-15T03:45:26.669Z,1018.09
2017-05-15T03:46:28.094Z,1018.10
2017-05-15T03:47:29.533Z,1018.13
2017-05-15T03:48:30.964Z,1018.15
2017-05-15T03:49:32.391Z,1018.19
2017-05-15T03:50:33.810Z,1018.26
2017-05-15T03:51:35.236Z,1018.23
2017-05-15T03:52:36.662Z,1018.32
2017-05-15T03:53:38.089Z,1018.31
2017-05-15T03:54:39.523Z,1018.33
2017-05-15T03:55:40.951Z,1018.37
2017-05-15T03:56:42.379Z,1018.37
2017-05-15T03:57:43.816Z,1018.41
2017-05-15T03:58:45.247Z,1018.42
2017-05-15T03:59:46.680Z,1018.40
2017-05-15T04:00:48.110Z,1018.39
2017-05-15T04:01:49.545Z,1018.43
2017-05-15T04:02:50.970Z,1018.39
2017-05-15T04:03:52.400Z,1018.41
2017-05-15T04:04:53.836Z,1018.37
2017-05-15T04:05:55.274Z,1018.35
2017-05-15T04:06:57.466Z,1018.29
2017-05-15T04:07:58.895Z,1018.32
2017-05-15T04:09:00.329Z,1018.37
2017-05-15T04:10:01.761Z,1018.37
2017-05-15T04:11:03.196Z,1018.37
2017-05-15T04:12:04.626Z,1018.34
2017-05-15T04:13:06.057Z,1018.30
2017-05-15T04:14:07.496Z,1018.32
2017-05-15T04:15:08.926Z,1018.30
2017-05-15T04:16:10.360Z,1018.28
2017-05-15T04:17:11.795Z,1018.30
2017-05-15T04:18:13.224Z,1018.31
2017-05-15T04:19:14.662Z,1018.32
2017-05-15T04:20:16.092Z,1018.36
2017-05-15T04:21:17.523Z,1018.37
2017-05-15T04:22:18.943Z,1018.38
2017-05-15T04:23:20.381Z,1018.40
2017-05-15T04:24:21.808Z,1018.41
2017-05-15T04:25:23.228Z,1018.42
2017-05-15T04:26:24.662Z,1018.41
2017-05-15T04:27:26.093Z,1018.45
2017-05-15T04:28:27.522Z,1018.45
2017-05-15T04:29:28.950Z,1018.50
2017-05-15T04:30:30.374Z,1018.51
2017-05-15T04:31:31.801Z,1018.57
2017-05-15T04:32:33.229Z,1018.63
2017-05-15T04:33:34.664Z,1018.69
2017-05-15T04:34:36.098Z,1018.67
2017-05-15T04:35:37.527Z,1018.66
2017-05-15T04:36:38.958Z,1018.69
2017-05-15T04:37:40.386Z,1018.69
2017-05-15T04:38:41.810Z,1018.69
2017-05-15T04:39:43.247Z,1018.71
2017-05-15T04:40:44.674Z,1018.71
2017-05-15T04:41:46.103Z,1018.71
2017-05-15T04:42:47.529Z,1018.66
2017-05-15T04:43:48.973Z,1018.67
2017-05-15T04:44:50.415Z,1018.69
2017-05-15T04:45:51.846Z,1018.69
2017-05-15T04:46:53.272Z,1018.72
2017-05-15T04:47:54.702Z,1018.75
2017-05-15T04:48:56.137Z,1018.74
2017-05-15T04:49:57.615Z,1018.74
2017-05-15T04:50:59.042Z,1018.73
2017-05-15T04:52:00.469Z,1018.71
2017-05-15T04:53:01.892Z,1018.72
2017-05-15T04:54:03.322Z,1018.78
2017-05-15T04:55:04.753Z,1018.90
2017-05-15T04:56:06.954Z,1018.87
2017-05-15T04:57:08.391Z,1018.83
2017-05-15T04:58:09.818Z,1018.84
2017-05-15T04:59:11.256Z,1018.91
2017-05-15T05:00:12.699Z,1018.86
2017-05-15T05:01:14.132Z,1018.90
2017-05-15T05:02:15.562Z,1018.87
2017-05-15T05:03:17.105Z,1018.90
2017-05-15T05:04:18.533Z,1018.90
2017-05-15T05:05:19.967Z,1018.94
2017-05-15T05:06:21.389Z,1018.95
2017-05-15T05:07:22.815Z,1018.93
2017-05-15T05:08:24.252Z,1018.95
2017-05-15T05:09:25.684Z,1019.01
2017-05-15T05:10:27.210Z,1019.00
2017-05-15T05:11:28.640Z,1019.01
2017-05-15T05:12:30.077Z,1019.08
2017-05-15T05:13:31.497Z,1019.08
2017-05-15T05:14:32.935Z,1019.11
2017-05-15T05:15:34.367Z,1019.08
2017-05-15T05:16:35.796Z,1019.12
2017-05-15T05:17:37.311Z,1019.12
2017-05-15T05:18:38.742Z,1019.13
2017-05-15T05:19:40.753Z,1019.09
2017-05-15T05:20:42.181Z,1019.17
2017-05-15T05:21:43.608Z,1019.21
2017-05-15T05:22:45.040Z,1019.15
2017-05-15T05:23:46.480Z,1019.20
2017-05-15T05:24:47.900Z,1019.20
2017-05-15T05:25:49.334Z,1019.23
2017-05-15T05:26:50.765Z,1019.26
2017-05-15T05:27:52.197Z,1019.30
2017-05-15T05:28:53.626Z,1019.28
2017-05-15T05:29:55.057Z,1019.28
2017-05-15T05:30:56.482Z,1019.27
2017-05-15T05:31:57.914Z,1019.30
2017-05-15T05:32:59.341Z,1019.32
2017-05-15T05:34:00.769Z,1019.32
2017-05-15T05:35:02.213Z,1019.32
2017-05-15T05:36:03.640Z,1019.36
2017-05-15T05:37:05.067Z,1019.33
2017-05-15T05:38:06.504Z,1019.39
2017-05-15T05:39:07.928Z,1019.41
2017-05-15T05:40:09.363Z,1019.44
2017-05-15T05:41:10.793Z,1019.38
2017-05-15T05:42:12.221Z,1019.45
2017-05-15T05:43:13.662Z,1019.45
2017-05-15T05:44:15.093Z,1019.45
2017-05-15T05:45:16.526Z,1019.45
2017-05-15T05:46:17.953Z,1019.49
2017-05-15T05:47:19.381Z,1019.46
2017-05-15T05:48:21.802Z,1019.43
2017-05-15T05:49:23.182Z,1019.49
2017-05-15T05:50:24.615Z,1019.48
2017-05-15T05:51:26.048Z,1019.53
2017-05-15T05:52:27.478Z,1019.53
2017-05-15T05:53:28.905Z,1019.53
2017-05-15T05:54:30.342Z,1019.56
2017-05-15T05:55:31.776Z,1019.56
2017-05-15T05:56:33.219Z,1019.59
2017-05-15T05:57:34.652Z,1019.61
2017-05-15T05:58:36.082Z,1019.61
2017-05-15T05:59:37.516Z,1019.59
2017-05-15T06:00:39.590Z,1019.59
2017-05-15T06:01:41.024Z,1019.60
2017-05-15T06:02:42.453Z,1019.63
2017-05-15T06:03:43.878Z,1019.59
2017-05-15T06:04:45.306Z,1019.64
2017-05-15T06:05:46.740Z,1019.62
2017-05-15T06:06:48.170Z,1019.63
2017-05-15T06:07:49.613Z,1019.63
2017-05-15T06:08:51.042Z,1019.61
2017-05-15T06:09:52.479Z,1019.64
2017-05-15T06:10:53.908Z,1019.67
2017-05-15T06:11:55.340Z,1019.70
2017-05-15T06:12:57.324Z,1019.70
2017-05-15T06:13:58.757Z,1019.73
2017-05-15T06:15:00.185Z,1019.72
2017-05-15T06:16:01.615Z,1019.71
2017-05-15T06:17:03.054Z,1019.70
2017-05-15T06:18:04.488Z,1019.75
2017-05-15T06:19:05.914Z,1019.75
2017-05-15T06:20:07.400Z,1019.77
2017-05-15T06:21:08.858Z,1019.75
2017-05-15T06:22:10.268Z,1019.73
2017-05-15T06:23:11.696Z,1019.72
2017-05-15T06:24:13.125Z,1019.77
2017-05-15T06:25:14.556Z,1019.74
2017-05-15T06:26:15.982Z,1019.74
2017-05-15T06:27:17.419Z,1019.79
2017-05-15T06:28:18.855Z,1019.80
2017-05-15T06:29:20.274Z,1019.78
2017-05-15T06:30:21.792Z,1019.79
2017-05-15T06:31:23.257Z,1019.81
2017-05-15T06:32:24.699Z,1019.80
2017-05-15T06:33:26.136Z,1019.80
2017-05-15T06:34:27.566Z,1019.80
2017-05-15T06:35:28.991Z,1019.82
2017-05-15T06:36:30.417Z,1019.79
2017-05-15T06:37:31.851Z,1019.82
2017-05-15T06:38:33.295Z,1019.80
2017-05-15T06:39:34.737Z,1019.79
2017-05-15T06:40:36.172Z,1019.74
2017-05-15T06:41:37.599Z,1019.78
2017-05-15T06:43:40.434Z,1019.78
2017-05-15T06:44:41.861Z,1019.77
2017-05-15T06:45:43.293Z,1019.79
2017-05-15T06:46:44.724Z,1019.80
2017-05-15T06:47:46.153Z,1019.79
2017-05-15T06:48:47.586Z,1019.75
2017-05-15T06:49:49.019Z,1019.80
2017-05-15T06:50:51.192Z,1019.80
2017-05-15T06:51:52.621Z,1019.84
2017-05-15T06:52:54.061Z,1019.84
2017-05-15T06:53:55.494Z,1019.86
2017-05-15T06:54:56.930Z,1019.89
2017-05-15T06:55:58.365Z,1019.84
2017-05-15T06:56:59.802Z,1019.89
2017-05-15T06:58:01.227Z,1019.89
2017-05-15T06:59:02.656Z,1019.94
2017-05-15T07:00:04.087Z,1019.89
2017-05-15T07:01:05.516Z,1019.90
2017-05-15T07:02:06.957Z,1019.92
2017-05-15T07:03:08.386Z,1019.91
2017-05-15T07:04:09.816Z,1019.94
2017-05-15T07:05:11.245Z,1019.94
2017-05-15T07:06:12.667Z,1019.96
2017-05-15T07:07:14.111Z,1019.95
2017-05-15T07:08:15.535Z,1020.00
2017-05-15T07:09:17.650Z,1019.98
2017-05-15T07:10:19.085Z,1019.99
2017-05-15T07:11:20.510Z,1020.00
2017-05-15T07:12:21.953Z,1020.01
2017-05-15T07:13:23.429Z,1019.99
2017-05-15T07:14:24.894Z,1020.01
2017-05-15T07:15:26.323Z,1020.01
2017-05-15T07:16:27.760Z,1019.99
2017-05-15T07:17:29.188Z,1019.99
2017-05-15T07:18:30.623Z,1019.96
2017-05-15T07:19:32.057Z,1019.97
2017-05-15T07:20:33.494Z,1019.90
2017-05-15T07:21:34.935Z,1019.91
2017-05-15T07:22:37.275Z,1019.88
2017-05-15T07:23:38.715Z,1019.86
2017-05-15T07:24:40.151Z,1019.86
2017-05-15T07:25:41.583Z,1019.81
2017-05-15T07:26:43.008Z,1019.83
2017-05-15T07:27:44.456Z,1019.79
2017-05-15T07:28:45.888Z,1019.83
2017-05-15T07:29:47.315Z,1019.89
2017-05-15T07:30:48.744Z,1019.88
2017-05-15T07:31:50.175Z,1019.90
2017-05-15T07:32:51.612Z,1019.94
2017-05-15T07:33:53.638Z,1019.95
2017-05-15T07:34:55.065Z,1019.94
2017-05-15T07:35:56.503Z,1019.98
2017-05-15T07:36:57.930Z,1019.94
2017-05-15T07:37:59.367Z,1019.98
2017-05-15T07:39:00.793Z,1019.99
2017-05-15T07:40:02.228Z,1019.97
2017-05-15T07:41:03.655Z,1019.97
2017-05-15T07:42:05.085Z,1020.00
2017-05-15T07:43:06.529Z,1019.98
2017-05-15T07:44:07.958Z,1020.01
2017-05-15T07:45:09.395Z,1020.00
2017-05-15T07:46:11.422Z,1020.02
2017-05-15T07:47:12.197Z,1020.05
2017-05-15T07:48:14.491Z,1020.03
2017-05-15T07:49:15.931Z,1020.02
2017-05-15T07:50:17.362Z,1019.99
2017-05-15T07:51:18.822Z,1020.03
2017-05-15T07:52:20.259Z,1020.05
2017-05-15T07:53:21.684Z,1020.07
2017-05-15T07:54:23.118Z,1020.02
2017-05-15T07:55:24.568Z,1020.07
2017-05-15T07:56:26.002Z,1020.09
2017-05-15T07:57:27.433Z,1020.07
2017-05-15T07:58:28.865Z,1020.10
2017-05-15T07:59:30.298Z,1020.06
2017-05-15T08:00:31.729Z,1020.05
2017-05-15T08:01:33.210Z,1020.07
2017-05-15T08:02:34.680Z,1020.08
2017-05-15T08:03:36.115Z,1020.12
2017-05-15T08:04:37.544Z,1020.11
2017-05-15T08:05:40.013Z,1020.05
2017-05-15T08:06:41.445Z,1020.09
2017-05-15T08:07:42.922Z,1020.13
2017-05-15T08:08:44.365Z,1020.13
2017-05-15T08:09:45.795Z,1020.15
2017-05-15T08:10:47.249Z,1020.13
2017-05-15T08:11:48.709Z,1020.19
2017-05-15T08:12:50.140Z,1020.14
2017-05-15T08:13:51.587Z,1020.18
2017-05-15T08:14:53.017Z,1020.21
2017-05-15T08:15:54.453Z,1020.28
2017-05-15T08:16:56.553Z,1020.25
2017-05-15T08:17:57.982Z,1020.27
2017-05-15T08:18:59.433Z,1020.30
2017-05-15T08:20:00.864Z,1020.30
2017-05-15T08:21:02.299Z,1020.34
2017-05-15T08:22:03.740Z,1020.38
2017-05-15T08:23:05.177Z,1020.38
2017-05-15T08:24:06.609Z,1020.36
2017-05-15T08:25:08.038Z,1020.42
2017-05-15T08:26:09.473Z,1020.42
2017-05-15T08:27:10.910Z,1020.39
2017-05-15T08:28:12.332Z,1020.43
2017-05-15T08:29:13.811Z,1020.44
2017-05-15T08:30:15.208Z,1020.44
2017-05-15T08:31:16.648Z,1020.48
2017-05-15T08:32:18.076Z,1020.49
2017-05-15T08:33:19.506Z,1020.45
2017-05-15T08:34:20.940Z,1020.48
2017-05-15T08:35:22.382Z,1020.43
2017-05-15T08:36:23.812Z,1020.46
2017-05-15T08:37:25.245Z,1020.50
2017-05-15T08:38:26.684Z,1020.51
2017-05-15T08:39:28.127Z,1020.48
2017-05-15T08:40:29.559Z,1020.48
2017-05-15T08:41:30.991Z,1020.49
2017-05-15T08:42:32.431Z,1020.50
2017-05-15T08:43:33.874Z,1020.52
2017-05-15T08:44:35.304Z,1020.54
2017-05-15T08:45:36.734Z,1020.59
2017-05-15T08:46:38.176Z,1020.64
2017-05-15T08:47:39.607Z,1020.59
2017-05-15T08:48:41.045Z,1020.61
2017-05-15T08:49:42.487Z,1020.60
2017-05-15T08:50:43.926Z,1020.66
2017-05-15T08:51:45.366Z,1020.62
2017-05-15T08:52:46.800Z,1020.68
2017-05-15T08:53:48.236Z,1020.72
2017-05-15T08:54:49.675Z,1020.71
2017-05-15T08:55:51.108Z,1020.73
2017-05-15T08:56:52.546Z,1020.73
2017-05-15T08:57:53.980Z,1020.77
2017-05-15T08:58:55.408Z,1020.76
2017-05-15T08:59:56.848Z,1020.74
2017-05-15T09:00:58.283Z,1020.76
2017-05-15T09:01:59.719Z,1020.75
2017-05-15T09:03:01.156Z,1020.79
2017-05-15T09:04:02.598Z,1020.79
2017-05-15T09:05:04.031Z,1020.77
2017-05-15T09:06:05.470Z,1020.77
2017-05-15T09:07:06.921Z,1020.79
2017-05-15T09:08:08.357Z,1020.77
2017-05-15T09:09:09.782Z,1020.84
2017-05-15T09:10:11.228Z,1020.80
2017-05-15T09:11:12.665Z,1020.79
2017-05-15T09:12:14.100Z,1020.77
2017-05-15T09:13:15.539Z,1020.81
2017-05-15T09:14:16.975Z,1020.81
2017-05-15T09:15:19.050Z,1020.76
2017-05-15T09:16:20.485Z,1020.76
2017-05-15T09:17:21.932Z,1020.75
2017-05-15T09:18:23.380Z,1020.80
2017-05-15T09:19:24.817Z,1020.77
2017-05-15T09:20:26.258Z,1020.79
2017-05-15T09:21:27.689Z,1020.78
2017-05-15T09:22:29.125Z,1020.81
2017-05-15T09:23:31.082Z,1020.73
2017-05-15T09:24:32.525Z,1020.79
2017-05-15T09:25:33.964Z,1020.71
2017-05-15T09:26:35.405Z,1020.77
2017-05-15T09:27:36.843Z,1020.72
2017-05-15T09:28:38.279Z,1020.67
2017-05-15T09:29:39.712Z,1020.68
2017-05-15T09:30:41.149Z,1020.68
2017-05-15T09:31:42.579Z,1020.67
2017-05-15T09:32:44.015Z,1020.70
2017-05-15T09:33:45.451Z,1020.73
2017-05-15T09:34:46.890Z,1020.71
2017-05-15T09:35:48.331Z,1020.72
2017-05-15T09:36:49.778Z,1020.64
2017-05-15T09:37:51.213Z,1020.69
2017-05-15T09:38:52.661Z,1020.60
2017-05-15T09:39:54.109Z,1020.60
2017-05-15T09:40:55.552Z,1020.55
2017-05-15T09:41:57.109Z,1020.59
2017-05-15T09:42:58.570Z,1020.62
2017-05-15T09:43:59.999Z,1020.65
2017-05-15T09:45:01.449Z,1020.56
2017-05-15T09:46:02.876Z,1020.63
2017-05-15T09:47:04.317Z,1020.55
2017-05-15T09:48:05.755Z,1020.52
2017-05-15T09:49:07.825Z,1020.55
2017-05-15T09:50:09.271Z,1020.51
2017-05-15T09:51:10.710Z,1020.55
2017-05-15T09:52:12.146Z,1020.55
2017-05-15T09:53:13.584Z,1020.53
2017-05-15T09:54:15.026Z,1020.49
2017-05-15T09:55:16.470Z,1020.55
2017-05-15T09:56:17.905Z,1020.54
2017-05-15T09:57:19.347Z,1020.51
2017-05-15T09:58:20.789Z,1020.53
2017-05-15T09:59:22.234Z,1020.53
2017-05-15T10:00:23.692Z,1020.48
2017-05-15T10:01:25.130Z,1020.47
2017-05-15T10:02:26.564Z,1020.50
2017-05-15T10:03:27.997Z,1020.44
2017-05-15T10:04:29.427Z,1020.45
2017-05-15T10:05:30.871Z,1020.43
2017-05-15T10:06:32.305Z,1020.38
2017-05-15T10:07:33.741Z,1020.36
2017-05-15T10:08:35.188Z,1020.36
2017-05-15T10:09:36.631Z,1020.33
2017-05-15T10:10:38.066Z,1020.33
2017-05-15T10:11:39.507Z,1020.29
2017-05-15T10:12:40.940Z,1020.25
2017-05-15T10:13:42.379Z,1020.22
2017-05-15T10:14:43.819Z,1020.19
2017-05-15T10:15:45.269Z,1020.25
2017-05-15T10:16:46.705Z,1020.25
2017-05-15T10:17:48.148Z,1020.31
2017-05-15T10:18:49.587Z,1020.31
2017-05-15T10:19:51.039Z,1020.36
2017-05-15T10:20:52.505Z,1020.38
2017-05-15T10:21:53.938Z,1020.34
2017-05-15T10:22:55.404Z,1020.34
2017-05-15T10:23:56.924Z,1020.35
2017-05-15T10:24:58.363Z,1020.28
2017-05-15T10:25:59.806Z,1020.37
2017-05-15T10:27:01.248Z,1020.34
2017-05-15T10:28:02.755Z,1020.41
2017-05-15T10:29:04.153Z,1020.37
2017-05-15T10:30:05.587Z,1020.38
2017-05-15T10:31:07.055Z,1020.42
2017-05-15T10:32:08.494Z,1020.44
2017-05-15T10:33:09.926Z,1020.42
2017-05-15T10:34:11.369Z,1020.40
2017-05-15T10:35:12.829Z,1020.33
2017-05-15T10:36:14.278Z,1020.34
2017-05-15T10:37:15.719Z,1020.31
2017-05-15T10:38:17.144Z,1020.29
2017-05-15T10:39:18.591Z,1020.33
2017-05-15T10:40:20.030Z,1020.38
2017-05-15T10:41:21.473Z,1020.35
2017-05-15T10:42:22.918Z,1020.37
2017-05-15T10:43:24.360Z,1020.34
2017-05-15T10:44:25.801Z,1020.35
2017-05-15T10:45:27.238Z,1020.45
2017-05-15T10:46:28.680Z,1020.40
2017-05-15T10:47:30.115Z,1020.36
2017-05-15T10:48:31.598Z,1020.40
2017-05-15T10:49:32.993Z,1020.32
2017-05-15T10:50:34.432Z,1020.38
2017-05-15T10:51:35.878Z,1020.39
2017-05-15T10:52:37.356Z,1020.37
2017-05-15T10:53:38.796Z,1020.37
2017-05-15T10:54:40.236Z,1020.37
2017-05-15T10:55:41.677Z,1020.38
2017-05-15T10:56:43.118Z,1020.34
2017-05-15T10:57:44.562Z,1020.38
2017-05-15T10:58:45.996Z,1020.36
2017-05-15T10:59:47.442Z,1020.38
2017-05-15T11:00:48.891Z,1020.38
2017-05-15T11:01:50.336Z,1020.39
2017-05-15T11:02:51.789Z,1020.36
2017-05-15T11:03:53.241Z,1020.35
2017-05-15T11:04:54.677Z,1020.27
2017-05-15T11:05:56.120Z,1020.33
2017-05-15T11:06:57.565Z,1020.35
2017-05-15T11:07:59.018Z,1020.44
2017-05-15T11:09:00.448Z,1020.40
2017-05-15T11:10:01.890Z,1020.39
2017-05-15T11:11:03.333Z,1020.30
2017-05-15T11:12:04.771Z,1020.28
2017-05-15T11:13:06.214Z,1020.31
2017-05-15T11:14:07.652Z,1020.25
2017-05-15T11:15:09.115Z,1020.20
2017-05-15T11:16:10.560Z,1020.21
2017-05-15T11:17:11.993Z,1020.25
2017-05-15T11:18:13.437Z,1020.26
2017-05-15T11:19:14.906Z,1020.23
2017-05-15T11:20:16.344Z,1020.21
2017-05-15T11:21:17.791Z,1020.26
2017-05-15T11:22:19.228Z,1020.24
2017-05-15T11:23:20.675Z,1020.18
2017-05-15T11:24:22.116Z,1020.26
2017-05-15T11:25:23.900Z,1020.29
2017-05-15T11:26:25.302Z,1020.23
2017-05-15T11:27:26.742Z,1020.19
2017-05-15T11:28:28.180Z,1020.20
2017-05-15T11:29:29.616Z,1020.16
2017-05-15T11:30:31.064Z,1020.10
2017-05-15T11:31:32.501Z,1020.07
2017-05-15T11:32:33.941Z,1020.10
2017-05-15T11:33:35.377Z,1020.17
2017-05-15T11:34:36.813Z,1020.22
2017-05-15T11:35:38.250Z,1020.26
2017-05-15T11:36:39.685Z,1020.22
2017-05-15T11:37:41.123Z,1020.19
2017-05-15T11:38:42.567Z,1020.14
2017-05-15T11:39:44.012Z,1020.15
2017-05-15T11:40:45.452Z,1020.15
2017-05-15T11:41:46.893Z,1020.23
2017-05-15T11:42:48.330Z,1020.26
2017-05-15T11:43:49.768Z,1020.25
2017-05-15T11:44:52.162Z,1020.17
2017-05-15T11:45:53.598Z,1020.23
2017-05-15T11:46:55.042Z,1020.20
2017-05-15T11:47:56.490Z,1020.12
2017-05-15T11:48:57.933Z,1020.12
2017-05-15T11:49:59.363Z,1020.18
2017-05-15T11:51:00.806Z,1020.12
2017-05-15T11:52:02.242Z,1020.19
2017-05-15T11:53:03.689Z,1020.20
2017-05-15T11:54:05.128Z,1020.21
2017-05-15T11:55:06.564Z,1020.17
2017-05-15T11:56:08.005Z,1020.30
2017-05-15T11:57:09.447Z,1020.27
2017-05-15T11:58:10.896Z,1020.25
2017-05-15T11:59:12.335Z,1020.18
2017-05-15T12:00:13.776Z,1020.22
2017-05-15T12:01:15.225Z,1020.19
2017-05-15T12:02:16.675Z,1020.25
2017-05-15T12:03:18.120Z,1020.18
2017-05-15T12:04:19.558Z,1020.21
2017-05-15T12:05:20.999Z,1020.17
2017-05-15T12:06:22.446Z,1020.13
2017-05-15T12:07:23.887Z,1020.11
2017-05-15T12:08:25.318Z,1020.11
2017-05-15T12:09:26.763Z,1020.12
2017-05-15T12:10:28.204Z,1020.06
2017-05-15T12:11:29.646Z,1020.09
2017-05-15T12:12:31.084Z,1020.03
2017-05-15T12:13:32.537Z,1020.04
2017-05-15T12:14:33.976Z,1020.06
2017-05-15T12:15:35.417Z,1020.03
2017-05-15T12:16:36.862Z,1019.99
2017-05-15T12:17:38.301Z,1020.00
2017-05-15T12:18:39.740Z,1020.02
2017-05-15T12:19:41.176Z,1020.08
2017-05-15T12:20:42.618Z,1020.10
2017-05-15T12:21:44.914Z,1020.15
2017-05-15T12:22:46.356Z,1020.14
2017-05-15T12:23:47.796Z,1020.09